MyTimes logo

TIMES

Webb Imagery

28/01/2001
Cowes Classic
500m Swim / 4.0km Run - Local Residents

(Click on competitor name to view personalised results)

Name
Race #
Category
Team Name
Time
(h:mm:ss)
Avg Speed
km/hr
OAll
Place
Cat
Place
HOLLINS Peter#66Local Senior Male0:23:17 11.6 11
FLEISNER Rob#135Local Over 40 Male0:24:56 10.8 21
YUSKO Bill#172Local Over 40 Male0:25:41 10.5 32
SPOTTISWOOD James#158Local Junior Male0:25:57 10.4 41
YUSKO Daniel#148Local Junior Male0:25:57 10.4 52
DALLINGER Chris#88Local Senior Male0:26:15 10.3 62
MARCUN Stuart#80Local Senior Male0:26:26 10.2 73
ROLLAND Thierry#18Local Senior Male0:27:38 9.8 84
JUDD Gary#164Local Over 40 Male0:28:02 9.6 93
KENT Ryan#157Local Junior Male0:28:24 9.5 103
HEWETT Noel#41Local Senior Male0:28:27 9.5 115
MARSHALL Luke#89Local Senior Male0:28:32 9.5 126
WEIR Jake#179Local Junior Male0:29:04 9.3 134
GRAEME Sarah#153Local Junior Female0:29:13 9.2 141
CARTER Dean#159Local Over 40 Male0:29:28 9.2 154
SCHEPEMAKER Nick#53Local Senior Male0:29:32 9.1 167
EVANS Bree#152Local Junior Female0:29:36 9.1 172
WILLIAMS Alastair#73Local Senior Male0:29:39 9.1 188
KEADY Richard#165Local Over 40 Male0:30:07 9 195
VAN DIJK Robert#188Local Over 40 Male0:30:26 8.9 206
DALLINGER Brian#161Local Over 40 Male0:31:00 8.7 217
FAIRTHORNE Mark#63Local Senior Male0:31:24 8.6 229
JONES David#147Local Junior Male0:31:24 8.6 235
DAVIE Angie#201Local Senior Female0:31:39 8.5 241
DOOM Kathy#200Local Senior Female0:32:23 8.3 252
PIROUET Darren#90Local Senior Male0:32:29 8.3 2610
TSCHIDERER Melanie#144Local Senior Female0:32:36 8.3 273
MEMBREY Jarrod#180Local Junior Male0:32:37 8.3 286
HORNSBY Anthony#85Local Senior Male0:32:49 8.2 2911
PHILLIPS Tamlyn#124Local Senior Female0:32:50 8.2 304
JOHNSTON John#97Local Senior Male0:33:14 8.1 3112
MANNING Simon#44Local Senior Male0:33:23 8.1 3213
DAVIE Richie#197Local Over 40 Male0:33:25 8.1 338
COX Bill#160Local Over 40 Male0:33:42 8 349
GRAHAME Bruce#34Local Senior Male0:33:59 7.9 3514
CAMERON Jane#156Local Senior Female0:34:00 7.9 365
FENECH Shane#61Local Senior Male0:34:35 7.8 3715
SYKES David#123Local Over 40 Male0:34:49 7.8 3810
YUSKO Imogine#151Local Junior Female0:34:54 7.7 393
MC CASKER Daniel#54Local Senior Male0:34:57 7.7 4016
ROOKS David#14Local Senior Male0:35:00 7.7 4117
BROWN Jim#185Local Over 40 Male0:35:03 7.7 4211
TAYLOR Rick#170Local Over 40 Male0:36:21 7.4 4312
THURGOOD Neville#72Local Senior Male0:36:48 7.3 4418
HARRIS David#96Local Senior Male0:36:59 7.3 4519
JOHNSTON Brian#163Local Over 40 Male0:37:20 7.2 4613
MC LEOD Beth#177Local Senior Female0:38:51 6.9 476
PRICE Brodie#184Local Junior Male0:38:58 6.9 487
OGIER Dale#74Local Senior Male0:41:06 6.6 4920